46.2°F
Current conditions from King Hill
Updated every 5 minutes
 
  Tuesday September 30, 2014

Station Historical Data
Daily Summary for August 11, 2012 Units:  Metric    English   Both
« Previous Day
Next Day »
Daily Weekly Monthly Yearly Custom
  High: Low: Average:
Temperature: 28.6 °C 16.8 °C 21.2 °C
Dew Point: 22 °C 16.1 °C 19.1 °C
Humidity: 97% 65% 89%
Wind Speed: 12.9km/h 0km/h 3.9km/h
Wind Gust: 29km/h - -
Wind- - SSW
Pressure: 1010 hPa 1008 hPa -
Precipitation: 21.3 mm    
Historical Graphs
 
 
Tabular Data for August 11, 2012
Time Temperature Dew Point Pressure Wind Wind Speed Wind Gust Humidity Daily Rainfall
00:04 18.7 °C 18.1 °C 1008.4 hPa Calm     96% 0 mm
00:09 18.6 °C 17.9 °C 1008 hPa Calm     96% 0 mm
00:14 18.6 °C 17.9 °C 1008 hPa Calm     96% 0 mm
00:19 18.6 °C 17.9 °C 1008 hPa Calm     96% 0 mm
00:24 18.6 °C 17.9 °C 1008 hPa Calm   1.6 km/h 96% 0 mm
00:29 18.5 °C 17.8 °C 1008 hPa Calm   1.6 km/h 96% 0 mm
00:35 18.5 °C 17.8 °C 1008 hPa Calm     96% 0 mm
00:44 18.5 °C 17.8 °C 1008 hPa Calm     96% 0 mm
00:49 18.4 °C 17.8 °C 1008 hPa Calm     96% 0 mm
00:54 18.3 °C 17.7 °C 1008 hPa Calm     96% 0 mm
00:59 18.2 °C 17.6 °C 1008 hPa Calm     96% 0 mm
01:04 18.2 °C 17.5 °C 1008 hPa Calm   3.2 km/h 96% 0 mm
01:09 18.2 °C 17.5 °C 1008 hPa Calm   3.2 km/h 96% 0 mm
01:14 18.3 °C 17.6 °C 1008 hPa Calm     96% 0 mm
01:19 18.4 °C 17.8 °C 1008 hPa Calm   3.2 km/h 96% 0 mm
01:24 18.3 °C 17.6 °C 1008 hPa Calm   3.2 km/h 96% 0 mm
01:29 18.1 °C 17.4 °C 1008 hPa Calm     96% 0 mm
01:34 18.2 °C 17.5 °C 1008 hPa Calm   3.2 km/h 96% 0 mm
01:39 18.3 °C 17.6 °C 1008 hPa Calm   3.2 km/h 96% 0 mm
01:44 18.3 °C 17.7 °C 1008 hPa Calm     96% 0 mm
01:49 18.2 °C 17.6 °C 1008 hPa Calm     96% 0 mm
01:54 18.1 °C 17.4 °C 1008 hPa Calm     96% 0 mm
01:59 18 °C 17.3 °C 1008 hPa Calm     96% 0 mm
02:04 17.8 °C 17.2 °C 1008 hPa Calm     96% 0 mm
02:14 17.5 °C 16.8 °C 1008 hPa Calm     96% 0 mm
02:19 17.4 °C 16.8 °C 1008 hPa Calm     96% 0 mm
02:24 17.4 °C 16.8 °C 1008 hPa Calm     96% 0 mm
02:34 17.3 °C 16.7 °C 1008.4 hPa Calm     96% 0 mm
02:39 17.3 °C 16.7 °C 1008 hPa Calm     96% 0 mm
02:44 17.4 °C 16.8 °C 1008 hPa Calm     96% 0 mm
02:49 17.5 °C 16.8 °C 1008 hPa Calm   1.6 km/h 96% 0 mm
02:54 17.6 °C 16.9 °C 1008 hPa Calm   1.6 km/h 96% 0 mm
02:59 17.8 °C 17.3 °C 1008 hPa Calm     97% 0 mm
03:04 17.9 °C 17.3 °C 1008 hPa Calm     96% 0 mm
03:09 18.1 °C 17.6 °C 1008 hPa Calm   1.6 km/h 97% 0 mm
03:14 18 °C 17.5 °C 1008 hPa Calm   1.6 km/h 97% 0 mm
03:24 17.7 °C 17 °C 1008.4 hPa Calm     96% 0 mm
03:29 17.6 °C 16.9 °C 1008.4 hPa Calm     96% 0 mm
03:34 17.6 °C 16.9 °C 1008 hPa Calm     96% 0 mm
03:39 17.7 °C 17.2 °C 1008.4 hPa Calm     97% 0 mm
03:44 17.8 °C 17.3 °C 1008.4 hPa Calm     97% 0 mm
03:49 17.7 °C 17.2 °C 1008.4 hPa Calm     97% 0 mm
03:54 17.6 °C 17.1 °C 1008.4 hPa Calm     97% 0 mm
03:59 17.5 °C 16.8 °C 1008.4 hPa Calm     96% 0 mm
04:04 17.5 °C 16.8 °C 1008.4 hPa Calm     96% 0 mm
04:09 17.4 °C 16.8 °C 1008.4 hPa Calm     96% 0 mm
04:14 17.3 °C 16.7 °C 1008.4 hPa Calm     96% 0 mm
04:19 17.3 °C 16.8 °C 1008 hPa Calm     97% 0 mm
04:24 17.3 °C 16.8 °C 1008.4 hPa Calm     97% 0 mm
04:29 17.3 °C 16.8 °C 1008.4 hPa Calm     97% 0 mm
04:34 17.2 °C 16.5 °C 1008.4 hPa Calm     96% 0 mm
04:39 17.1 °C 16.4 °C 1008 hPa Calm     96% 0 mm
04:44 17.1 °C 16.6 °C 1008.4 hPa Calm     97% 0 mm
04:49 17 °C 16.5 °C 1008.4 hPa Calm     97% 0 mm
04:54 16.9 °C 16.4 °C 1008.4 hPa Calm     97% 0 mm
04:59 16.8 °C 16.2 °C 1008.4 hPa Calm     96% 0 mm
05:04 16.8 °C 16.2 °C 1008.7 hPa Calm     96% 0 mm
05:09 16.8 °C 16.1 °C 1008.7 hPa Calm     96% 0 mm
05:14 16.8 °C 16.2 °C 1008.7 hPa Calm     96% 0 mm
05:19 17.1 °C 16.6 °C 1008.7 hPa Calm     97% 0 mm
05:24 17 °C 16.5 °C 1008.7 hPa Calm     97% 0 mm
05:29 16.8 °C 16.1 °C 1008.7 hPa Calm     96% 0 mm
05:34 16.8 °C 16.2 °C 1008.7 hPa Calm     96% 0 mm
05:39 17.1 °C 16.6 °C 1008.4 hPa Calm     97% 0 mm
05:44 17.3 °C 16.8 °C 1008.7 hPa Calm   1.6 km/h 97% 0 mm
05:49 17.3 °C 16.8 °C 1008.7 hPa Calm   1.6 km/h 97% 0 mm
05:54 17.3 °C 16.8 °C 1008.7 hPa Calm     97% 0 mm
05:59 17.1 °C 16.6 °C 1008.7 hPa Calm     97% 0 mm
06:04 16.9 °C 16.4 °C 1008.7 hPa Calm     97% 0 mm
06:09 16.9 °C 16.4 °C 1008.7 hPa Calm     97% 0 mm
06:14 16.9 °C 16.4 °C 1008.7 hPa Calm     97% 0 mm
06:19 17.1 °C 16.6 °C 1008.7 hPa Calm     97% 0 mm
06:24 17.2 °C 16.7 °C 1008.7 hPa Calm   3.2 km/h 97% 0 mm
06:29 17.5 °C 17 °C 1008.7 hPa Calm   3.2 km/h 97% 0 mm
06:34 17.4 °C 16.9 °C 1009 hPa Calm   3.2 km/h 97% 0 mm
06:39 17.2 °C 16.7 °C 1009 hPa Calm     97% 0 mm
06:44 16.9 °C 16.2 °C 1009 hPa Calm     96% 0 mm
06:49 16.9 °C 16.4 °C 1009 hPa Calm     97% 0 mm
06:54 17.1 °C 16.6 °C 1009 hPa Calm     97% 0 mm
06:59 17.2 °C 16.7 °C 1009 hPa Calm     97% 0 mm
07:04 17.4 °C 16.9 °C 1009 hPa Calm     97% 0.3 mm
07:09 17.7 °C 17.2 °C 1009 hPa Calm     97% 0.3 mm
07:14 17.9 °C 17.4 °C 1009 hPa Calm     97% 0.3 mm
07:19 18.1 °C 17.6 °C 1009 hPa Calm   1.6 km/h 97% 0.3 mm
07:24 18.2 °C 17.7 °C 1009 hPa Calm   4.8 km/h 97% 0.3 mm
07:29 18.4 °C 17.9 °C 1009 hPa Calm   4.8 km/h 97% 0.3 mm
07:34 18.7 °C 18.2 °C 1009 hPa Calm   1.6 km/h 97% 0.3 mm
07:39 18.9 °C 18.4 °C 1009 hPa Calm   1.6 km/h 97% 0.3 mm
07:44 19.3 °C 18.8 °C 1009 hPa Calm     97% 0.3 mm
07:49 19.6 °C 19.1 °C 1009 hPa South 1.6 km/h 6.4 km/h 97% 0.3 mm
07:54 19.8 °C 19.3 °C 1009 hPa Calm   6.4 km/h 97% 0.3 mm
07:59 20.1 °C 19.6 °C 1009 hPa Calm   4.8 km/h 97% 0.3 mm
08:04 20.3 °C 19.8 °C 1009 hPa Calm   4.8 km/h 97% 0.3 mm
08:09 20.6 °C 20.1 °C 1009 hPa Calm     97% 0.3 mm
08:14 20.9 °C 20.4 °C 1009.4 hPa Calm     97% 0.3 mm
08:19 21.2 °C 20.7 °C 1009 hPa Calm     97% 0.3 mm
08:24 21.3 °C 20.8 °C 1009 hPa Calm     97% 0.3 mm
08:29 21.3 °C 20.8 °C 1009.4 hPa Calm     97% 0.3 mm
08:34 21.4 °C 20.9 °C 1009.4 hPa Calm     97% 0.3 mm
08:39 21.5 °C 21 °C 1009.4 hPa Calm     97% 0.3 mm
08:44 21.8 °C 21.3 °C 1009.4 hPa Calm     97% 0.3 mm
08:49 21.8 °C 21.2 °C 1009.4 hPa SSE 3.2 km/h 9.7 km/h 96% 0.3 mm
08:54 22.2 °C 21.2 °C 1009.4 hPa Calm   9.7 km/h 94% 0.3 mm
08:59 22.5 °C 20.8 °C 1009.4 hPa SSW 3.2 km/h 8 km/h 90% 0.3 mm
09:04 22.8 °C 20.9 °C 1009.4 hPa Calm   8 km/h 89% 0.3 mm
09:09 23.3 °C 21.1 °C 1009.4 hPa Calm   1.6 km/h 87% 0.3 mm
09:14 23.8 °C 20.9 °C 1009.4 hPa Calm   1.6 km/h 84% 0.3 mm
09:19 24.3 °C 21.6 °C 1009.4 hPa Calm   4.8 km/h 85% 0.3 mm
09:24 24.7 °C 21.2 °C 1009.4 hPa SW 1.6 km/h 6.4 km/h 81% 0.3 mm
09:29 24.6 °C 20.9 °C 1009.4 hPa SSW 3.2 km/h 11.3 km/h 80% 0.3 mm
09:34 24.5 °C 20.6 °C 1009.7 hPa Calm   11.3 km/h 79% 0.3 mm
09:39 24.4 °C 20.8 °C 1009.7 hPa SW 6.4 km/h 11.3 km/h 80% 0.3 mm
09:44 24.4 °C 20.8 °C 1009.4 hPa SSE 1.6 km/h 11.3 km/h 80% 0.3 mm
09:49 24.6 °C 20.9 °C 1009.7 hPa SSW 3.2 km/h 11.3 km/h 80% 0.3 mm
09:54 24.8 °C 20.9 °C 1009.7 hPa West 3.2 km/h 8 km/h 79% 0.3 mm
09:59 24.8 °C 20.7 °C 1009.7 hPa Calm   12.9 km/h 78% 0.3 mm
10:04 24.9 °C 21.1 °C 1009.7 hPa Calm   12.9 km/h 79% 0.3 mm
10:09 25.2 °C 21.1 °C 1009.7 hPa SSE 4.8 km/h 11.3 km/h 78% 0.3 mm
10:14 25.3 °C 20.8 °C 1009.7 hPa Calm   11.3 km/h 76% 0.3 mm
10:19 25.5 °C 20.9 °C 1009.7 hPa Calm   11.3 km/h 76% 0.3 mm
10:24 25.7 °C 20.9 °C 1009.7 hPa WSW 6.4 km/h 9.7 km/h 75% 0.3 mm
10:29 25.7 °C 21.1 °C 1009.7 hPa SE 6.4 km/h 14.5 km/h 76% 0.3 mm
10:39 25.8 °C 21.4 °C 1009.7 hPa SW 3.2 km/h 11.3 km/h 77% 0.3 mm
10:44 25.9 °C 20.9 °C 1009.7 hPa SSW 4.8 km/h 11.3 km/h 74% 0.3 mm
10:49 25.5 °C 20.6 °C 1009.4 hPa SW 4.8 km/h 11.3 km/h 74% 0.3 mm
10:54 25.4 °C 20.7 °C 1009.4 hPa South 1.6 km/h 8 km/h 75% 0.3 mm
10:59 25.6 °C 20.6 °C 1009.4 hPa Calm   9.7 km/h 74% 0.3 mm
11:04 25.5 °C 20.6 °C 1009.4 hPa Calm   9.7 km/h 74% 0.3 mm
11:09 25.6 °C 20.6 °C 1009.7 hPa Calm   1.6 km/h 74% 0.3 mm
11:14 25.9 °C 22 °C 1009.4 hPa SSW 1.6 km/h 11.3 km/h 79% 0.3 mm
11:19 26.1 °C 21.1 °C 1009.7 hPa South 3.2 km/h 11.3 km/h 74% 0.3 mm
11:24 26.3 °C 20.4 °C 1009.7 hPa Calm   11.3 km/h 70% 0.3 mm
11:29 26.3 °C 20.6 °C 1009.4 hPa SSW 4.8 km/h 11.3 km/h 71% 0.3 mm
11:34 26.1 °C 20.7 °C 1009.4 hPa Calm   11.3 km/h 72% 0.3 mm
11:39 26.7 °C 21.4 °C 1009.4 hPa SW 1.6 km/h 11.3 km/h 73% 0.3 mm
11:44 27.1 °C 21.4 °C 1009.4 hPa SSE 1.6 km/h 12.9 km/h 71% 0.3 mm
11:54 27 °C 21.1 °C 1009.4 hPa Calm   9.7 km/h 70% 0.3 mm
11:59 26.9 °C 21 °C 1009.4 hPa SSW 6.4 km/h 12.9 km/h 70% 0.3 mm
12:04 27.3 °C 21.1 °C 1009.4 hPa SSW 6.4 km/h 12.9 km/h 69% 0.3 mm
12:09 27.6 °C 20.9 °C 1009 hPa SSW 3.2 km/h 12.9 km/h 67% 0.3 mm
12:14 27.6 °C 21.2 °C 1009 hPa SW 3.2 km/h 11.3 km/h 68% 0.3 mm
12:19 27.9 °C 21.2 °C 1009 hPa Calm   14.5 km/h 67% 0.3 mm
12:24 28.2 °C 21.8 °C 1009 hPa Calm   14.5 km/h 68% 0.3 mm
12:29 28.3 °C 21.6 °C 1009 hPa SW 1.6 km/h 9.7 km/h 67% 0.3 mm
12:34 28.4 °C 21.7 °C 1009 hPa Calm   12.9 km/h 67% 0.3 mm
12:44 28.3 °C 21.6 °C 1009 hPa SSW 3.2 km/h 12.9 km/h 67% 0.3 mm
12:49 28.2 °C 21.3 °C 1009 hPa South 4.8 km/h 12.9 km/h 66% 0.3 mm
12:54 28.2 °C 21 °C 1009 hPa SSE 1.6 km/h 12.9 km/h 65% 0.3 mm
13:04 27.7 °C 21.3 °C 1009 hPa SSW 1.6 km/h 8 km/h 68% 0.3 mm
13:09 27.7 °C 21.3 °C 1008.7 hPa Calm   8 km/h 68% 0.3 mm
13:14 28.1 °C 21.6 °C 1009 hPa South 8 km/h 11.3 km/h 68% 0.3 mm
13:19 28.4 °C 21.4 °C 1009 hPa SSW 4.8 km/h 14.5 km/h 66% 0.3 mm
13:24 28.6 °C 21.9 °C 1008.7 hPa SSW 4.8 km/h 14.5 km/h 67% 0.3 mm
13:29 28.4 °C 21.7 °C 1008.7 hPa WNW 1.6 km/h 14.5 km/h 67% 0.3 mm
13:34 28.4 °C 21.5 °C 1008.7 hPa WSW 8 km/h 16.1 km/h 66% 0.3 mm
13:39 28.3 °C 21.3 °C 1008.7 hPa WSW 4.8 km/h 16.1 km/h 66% 0.3 mm
13:44 28.2 °C 21.5 °C 1008.7 hPa SW 8 km/h 14.5 km/h 67% 0.3 mm
13:54 28.2 °C 21.8 °C 1008.4 hPa SW 3.2 km/h 19.3 km/h 68% 0.3 mm
13:59 27.9 °C 20.9 °C 1008.7 hPa SW 4.8 km/h 11.3 km/h 66% 0.3 mm
14:04 27.6 °C 20.7 °C 1008.4 hPa Calm   11.3 km/h 66% 0.3 mm
14:09 27.4 °C 21.2 °C 1008.4 hPa Calm   12.9 km/h 69% 0.3 mm
14:14 27.7 °C 21.7 °C 1008.4 hPa SW 1.6 km/h 12.9 km/h 70% 0.3 mm
14:19 28 °C 21.6 °C 1008.4 hPa SSW 6.4 km/h 12.9 km/h 68% 0.3 mm
14:24 28.1 °C 20.9 °C 1008.4 hPa SSW 6.4 km/h 14.5 km/h 65% 0.3 mm
14:29 27.8 °C 20.9 °C 1008.4 hPa SW 6.4 km/h 14.5 km/h 66% 0.3 mm
14:34 27.6 °C 20.9 °C 1008.4 hPa South 4.8 km/h 12.9 km/h 67% 0.3 mm
14:39 27.4 °C 20.5 °C 1008.4 hPa SSE 6.4 km/h 17.7 km/h 66% 0.3 mm
14:44 27.2 °C 21 °C 1008.4 hPa Calm   17.7 km/h 69% 0.3 mm
14:49 27.1 °C 20.9 °C 1008.4 hPa SW 6.4 km/h 14.5 km/h 69% 0.3 mm
14:54 27 °C 21.1 °C 1008.4 hPa Calm   14.5 km/h 70% 0.3 mm
14:59 27.1 °C 21.1 °C 1008.4 hPa SSW 1.6 km/h 11.3 km/h 70% 0.3 mm
15:04 26.7 °C 20.6 °C 1008.4 hPa SSW 6.4 km/h 22.5 km/h 69% 0.3 mm
15:09 26.1 °C 20.2 °C 1008.4 hPa South 6.4 km/h 22.5 km/h 70% 0.3 mm
15:14 25.7 °C 20.7 °C 1008.4 hPa South 1.6 km/h 14.5 km/h 74% 0.3 mm
15:19 25.4 °C 20.7 °C 1008.4 hPa Calm   12.9 km/h 75% 0.3 mm
15:24 25.1 °C 20.4 °C 1008.4 hPa Calm   9.7 km/h 75% 0.3 mm
15:29 24.9 °C 20.4 °C 1008.4 hPa Calm   9.7 km/h 76% 0.3 mm
15:34 24.8 °C 20.3 °C 1008.4 hPa Calm   1.6 km/h 76% 0.3 mm
15:39 24.7 °C 20.4 °C 1008.4 hPa Calm   1.6 km/h 77% 0.3 mm
15:44 24.5 °C 20.2 °C 1008.4 hPa South 1.6 km/h 6.4 km/h 77% 0.3 mm
15:49 24.2 °C 20.2 °C 1008.4 hPa South 3.2 km/h 6.4 km/h 78% 0.3 mm
15:54 24 °C 20.1 °C 1008.4 hPa SSE 1.6 km/h 6.4 km/h 79% 0.3 mm
15:59 23.8 °C 20.4 °C 1008.7 hPa SSW 1.6 km/h 8 km/h 81% 0.3 mm
16:04 23.4 °C 20.2 °C 1008.4 hPa SE 1.6 km/h 8 km/h 82% 0.5 mm
16:09 23.1 °C 20 °C 1008.4 hPa Calm   6.4 km/h 83% 0.5 mm
16:14 22.8 °C 20.1 °C 1008.4 hPa Calm   4.8 km/h 85% 0.8 mm
16:19 22.6 °C 20.2 °C 1008.7 hPa Calm   3.2 km/h 86% 1 mm
16:24 22.4 °C 20.1 °C 1008.7 hPa Calm   1.6 km/h 87% 1 mm
16:29 22.3 °C 20.2 °C 1008.4 hPa Calm   1.6 km/h 88% 1 mm
16:34 22.2 °C 20.3 °C 1008.4 hPa Calm     89% 1 mm
16:44 22 °C 20.3 °C 1008.4 hPa Calm     90% 1 mm
16:54 22.1 °C 20.6 °C 1008.4 hPa Calm   4.8 km/h 91% 1 mm
16:59 22.3 °C 20.7 °C 1008.4 hPa Calm   1.6 km/h 91% 1 mm
17:04 22.3 °C 20.8 °C 1008.4 hPa Calm   1.6 km/h 91% 1 mm
17:09 22.6 °C 21 °C 1008.4 hPa Calm   1.6 km/h 91% 1 mm
17:14 22.7 °C 21.1 °C 1008.7 hPa Calm     91% 1 mm
17:19 22.7 °C 21.2 °C 1008.7 hPa Calm     91% 1 mm
17:24 22.7 °C 20.9 °C 1008.7 hPa Calm   1.6 km/h 90% 1 mm
17:29 22.7 °C 21.1 °C 1008.7 hPa Calm   1.6 km/h 91% 1 mm
17:34 22.7 °C 21.1 °C 1008.7 hPa Calm     91% 1 mm
17:39 22.7 °C 21.1 °C 1008.7 hPa Calm     91% 1 mm
17:44 22.7 °C 21.2 °C 1008.4 hPa Calm     91% 1 mm
17:49 22.7 °C 21.1 °C 1008.7 hPa South 1.6 km/h 6.4 km/h 91% 1 mm
17:54 22.6 °C 21.1 °C 1008.7 hPa Calm   6.4 km/h 91% 1 mm
17:59 22.6 °C 21 °C 1008.7 hPa Calm   3.2 km/h 91% 1 mm
18:04 22.4 °C 20.7 °C 1008.7 hPa Calm   1.6 km/h 90% 1 mm
18:09 22.4 °C 20.9 °C 1008.7 hPa Calm     91% 1 mm
18:14 22.3 °C 20.8 °C 1008.7 hPa Calm     91% 1 mm
18:19 22.3 °C 20.7 °C 1008.7 hPa Calm     91% 1 mm
18:24 22.2 °C 20.6 °C 1008.4 hPa Calm     91% 1 mm
18:29 22.1 °C 20.5 °C 1008.4 hPa Calm     91% 1 mm
18:34 22 °C 20.4 °C 1008.7 hPa Calm     91% 1.5 mm
18:39 21.8 °C 20.5 °C 1008.7 hPa Calm     92% 2 mm
18:44 21.8 °C 20.5 °C 1009 hPa Calm     92% 2.5 mm
18:49 21.8 °C 20.4 °C 1009 hPa Calm     92% 3.3 mm
18:54 21.7 °C 20.3 °C 1009 hPa Calm     92% 4.1 mm
18:59 21.6 °C 20.3 °C 1008.7 hPa Calm     92% 4.3 mm
19:04 21.6 °C 20.3 °C 1008.7 hPa Calm     92% 4.3 mm
19:09 21.5 °C 20.3 °C 1009.7 hPa SW 4.8 km/h 9.7 km/h 93% 5.1 mm
19:14 20.9 °C 19.6 °C 1009.7 hPa SW 6.4 km/h 29 km/h 92% 11.9 mm
19:19 20.2 °C 18.7 °C 1010 hPa SW 12.9 km/h 29 km/h 91% 16.3 mm
19:24 19.6 °C 18.1 °C 1009.7 hPa WSW 1.6 km/h 25.7 km/h 91% 18.8 mm
19:29 19.3 °C 18 °C 1009.4 hPa WSW 1.6 km/h 12.9 km/h 92% 20.6 mm
19:34 19.3 °C 17.9 °C 1009 hPa Calm   4.8 km/h 92% 21.1 mm
19:39 19.3 °C 18.2 °C 1009 hPa Calm     93% 21.1 mm
19:44 19.3 °C 18.2 °C 1009 hPa Calm     93% 21.1 mm
19:49 19.3 °C 18.1 °C 1009 hPa Calm     93% 21.1 mm
19:54 19.2 °C 18.1 °C 1009 hPa WSW 1.6 km/h 3.2 km/h 93% 21.1 mm
19:59 19.1 °C 17.9 °C 1009 hPa Calm   3.2 km/h 93% 21.1 mm
20:04 19.1 °C 17.9 °C 1008.7 hPa Calm   1.6 km/h 93% 21.1 mm
20:09 18.9 °C 17.9 °C 1009 hPa Calm     94% 21.1 mm
20:14 18.8 °C 17.8 °C 1009 hPa WSW 1.6 km/h 6.4 km/h 94% 21.1 mm
20:19 18.7 °C 17.7 °C 1009 hPa Calm   6.4 km/h 94% 21.1 mm
20:24 18.7 °C 17.7 °C 1009 hPa Calm   4.8 km/h 94% 21.1 mm
20:29 18.6 °C 17.6 °C 1009 hPa Calm     94% 21.1 mm
20:34 18.4 °C 17.4 °C 1009 hPa SE 1.6 km/h 6.4 km/h 94% 21.1 mm
20:39 18.6 °C 17.7 °C 1009 hPa Calm   6.4 km/h 95% 21.1 mm
20:44 18.6 °C 17.7 °C 1009 hPa Calm   3.2 km/h 95% 21.1 mm
20:49 18.4 °C 17.6 °C 1009 hPa Calm   1.6 km/h 95% 21.1 mm
20:54 18.5 °C 17.7 °C 1009 hPa Calm   3.2 km/h 95% 21.1 mm
20:59 18.6 °C 17.7 °C 1009 hPa Calm   3.2 km/h 95% 21.1 mm
21:04 18.6 °C 17.7 °C 1009 hPa Calm     95% 21.1 mm
21:09 18.5 °C 17.7 °C 1009 hPa Calm     95% 21.1 mm
21:14 18.4 °C 17.6 °C 1009 hPa Calm   3.2 km/h 95% 21.1 mm
21:19 18.7 °C 18 °C 1009 hPa Calm   4.8 km/h 96% 21.1 mm
21:24 18.8 °C 18.2 °C 1009 hPa Calm   4.8 km/h 96% 21.1 mm
21:29 18.8 °C 18.2 °C 1009.4 hPa Calm     96% 21.1 mm
21:34 18.8 °C 18.1 °C 1009 hPa Calm     96% 21.1 mm
21:39 18.7 °C 18 °C 1009.4 hPa Calm     96% 21.1 mm
21:44 18.5 °C 17.8 °C 1009.4 hPa Calm     96% 21.1 mm
21:49 18.3 °C 17.7 °C 1009.4 hPa Calm     96% 21.1 mm
21:54 18.2 °C 17.6 °C 1009.4 hPa Calm     96% 21.3 mm
21:59 18.2 °C 17.6 °C 1009 hPa Calm     96% 21.3 mm
22:04 18.2 °C 17.5 °C 1009.4 hPa Calm     96% 21.3 mm
22:09 18.2 °C 17.5 °C 1009.4 hPa Calm     96% 21.3 mm
22:14 18.2 °C 17.6 °C 1009.4 hPa Calm     96% 21.3 mm
22:19 18.2 °C 17.6 °C 1009 hPa Calm     96% 21.3 mm
22:24 18.2 °C 17.6 °C 1009.4 hPa Calm     96% 21.3 mm
22:29 18.3 °C 17.6 °C 1009.4 hPa Calm     96% 21.3 mm
22:34 18.3 °C 17.7 °C 1009.4 hPa Calm     96% 21.3 mm
22:39 18.4 °C 17.7 °C 1009.4 hPa Calm     96% 21.3 mm
22:44 18.5 °C 17.8 °C 1009.4 hPa Calm     96% 21.3 mm
22:49 18.6 °C 17.9 °C 1009.4 hPa Calm     96% 21.3 mm
22:54 18.6 °C 17.9 °C 1009.4 hPa Calm     96% 21.3 mm
22:59 18.8 °C 18.1 °C 1009.4 hPa Calm     96% 21.3 mm
23:04 19.1 °C 18.4 °C 1009.4 hPa South 3.2 km/h 6.4 km/h 96% 21.3 mm
23:09 19.3 °C 18.8 °C 1009.4 hPa SSW 1.6 km/h 6.4 km/h 97% 21.3 mm
23:14 19.5 °C 19 °C 1009.7 hPa Calm   6.4 km/h 97% 21.3 mm
23:19 19.6 °C 19.1 °C 1009.4 hPa SSW 3.2 km/h 6.4 km/h 97% 21.3 mm
23:24 19.6 °C 19.1 °C 1009.4 hPa Calm   6.4 km/h 97% 21.3 mm
23:29 19.5 °C 19 °C 1009.7 hPa SSW 4.8 km/h 8 km/h 97% 21.3 mm
23:34 19.4 °C 18.9 °C 1009.7 hPa Calm   9.7 km/h 97% 21.3 mm
23:39 19.4 °C 18.9 °C 1010 hPa SSW 1.6 km/h 9.7 km/h 97% 21.3 mm
23:44 19.5 °C 19 °C 1010 hPa SW 3.2 km/h 8 km/h 97% 21.3 mm
23:49 19.5 °C 19 °C 1010 hPa Calm   8 km/h 97% 21.3 mm
23:54 19.6 °C 19.1 °C 1010 hPa SSW 4.8 km/h 11.3 km/h 97% 21.3 mm
23:59 19.7 °C 19 °C 1010 hPa SSW 1.6 km/h 11.3 km/h 96% 21.3 mm
Westford Weather
Compliments of Weather Underground

 
 
Current Radar Loop:

Copyright © WestfordWeather.net 2007-2014. All rights reserved.